Time;durP1;ratioP1;P1;durP2;ratioP2;P2;SDS_P1;SDS_P2;PMS_P1;PMS_P2;Temp;Humidity;BMP_temperature;BMP_pressure;BME280_temperature;BME280_humidity;BME280_pressure;Samples;Min_cycle;Max_cycle;Signal;HPM_P1;HPM_P2
2021/10/13 00:01:14;;;;;;;14.58;11.10;;;;;;;8.95;84.85;94009.80;827075;71;32716;-75
2021/10/13 00:16:08;;;;;;;15.48;11.33;;;;;;;8.94;84.88;94001.18;827828;71;29664;-74
2021/10/13 00:31:09;;;;;;;14.40;11.35;;;;;;;9.04;85.31;93989.73;827988;71;29068;-78
2021/10/13 00:46:18;;;;;;;13.43;11.80;;;;;;;9.08;84.21;93970.31;834192;71;32999;-78
2021/10/13 01:01:26;;;;;;;16.12;12.60;;;;;;;9.16;83.67;93962.55;827135;71;31872;-77
2021/10/13 01:16:20;;;;;;;16.45;12.50;;;;;;;9.21;82.42;93962.45;827173;71;32307;-75
2021/10/13 01:31:27;;;;;;;19.90;14.50;;;;;;;9.26;81.66;93959.50;833651;71;28696;-76
2021/10/13 01:46:17;;;;;;;18.05;13.68;;;;;;;9.27;81.28;93957.91;827461;71;31760;-78
2021/10/13 02:01:11;;;;;;;17.75;13.70;;;;;;;9.27;80.34;93957.91;828054;71;29061;-75
2021/10/13 02:16:09;;;;;;;19.48;14.55;;;;;;;9.25;79.98;93971.05;833598;71;29124;-76
2021/10/13 02:31:10;;;;;;;19.05;13.45;;;;;;;9.23;79.86;93970.03;833647;71;29353;-78
2021/10/13 02:46:35;;;;;;;20.20;14.98;;;;;;;9.25;80.03;93982.30;827040;71;31871;-77
2021/10/13 03:16:10;;;;;;;18.98;13.35;;;;;;;9.17;79.23;94017.77;827695;71;28961;-77
2021/10/13 03:31:14;;;;;;;20.90;14.45;;;;;;;9.11;78.21;94029.94;835388;71;31882;-79
2021/10/13 03:46:12;;;;;;;17.95;13.90;;;;;;;9.07;77.78;94030.27;829780;71;29186;-78
2021/10/13 04:01:18;;;;;;;19.25;15.58;;;;;;;9.01;77.58;94027.73;835691;71;31791;-75
2021/10/13 04:16:09;;;;;;;20.30;15.58;;;;;;;8.93;77.43;94041.48;818674;71;29748;-76
2021/10/13 04:31:10;;;;;;;23.75;16.45;;;;;;;8.85;76.64;94042.14;833803;71;30246;-74
2021/10/13 04:46:09;;;;;;;27.87;16.77;;;;;;;8.75;76.63;94057.47;827919;71;31302;-78
2021/10/13 05:01:09;;;;;;;22.40;15.75;;;;;;;8.74;76.19;94084.70;827810;71;30952;-75
2021/10/13 05:16:09;;;;;;;21.02;15.40;;;;;;;9.07;75.57;94110.86;833657;71;30305;-76
2021/10/13 05:31:12;;;;;;;19.95;14.78;;;;;;;9.70;72.07;94121.81;833766;71;31566;-76
2021/10/13 05:46:09;;;;;;;19.37;15.15;;;;;;;9.62;71.73;94134.50;827960;71;29708;-75
2021/10/13 06:01:18;;;;;;;19.23;15.38;;;;;;;10.11;71.58;94138.82;827109;71;32758;-77
2021/10/13 06:16:14;;;;;;;20.50;16.80;;;;;;;12.96;64.59;94147.48;827569;71;32705;-75
2021/10/13 06:31:14;;;;;;;17.02;14.23;;;;;;;12.83;60.31;94170.23;827295;71;32879;-76
2021/10/13 06:46:09;;;;;;;16.23;13.62;;;;;;;12.27;60.50;94167.92;827783;71;30750;-75
2021/10/13 07:01:08;;;;;;;15.15;13.20;;;;;;;13.81;61.40;94157.42;828051;71;29263;-73
2021/10/13 07:16:08;;;;;;;15.60;13.13;;;;;;;14.56;56.05;94175.41;829110;71;30216;-74
2021/10/13 07:31:10;;;;;;;13.88;12.37;;;;;;;15.84;52.09;94173.09;827912;71;30402;-75
2021/10/13 07:46:14;;;;;;;12.85;11.55;;;;;;;17.31;48.91;94167.41;833442;71;33294;-75
2021/10/13 08:01:14;;;;;;;14.28;11.85;;;;;;;18.29;45.75;94165.53;827288;71;32663;-75
2021/10/13 08:16:08;;;;;;;13.32;11.48;;;;;;;18.93;43.73;94183.45;833731;71;30217;-74
2021/10/13 08:31:14;;;;;;;12.20;10.90;;;;;;;19.31;42.03;94177.19;827743;71;32680;-77
2021/10/13 08:46:08;;;;;;;12.90;11.57;;;;;;;19.33;42.29;94174.95;827819;71;30214;-75
2021/10/13 09:16:11;;;;;;;14.30;12.30;;;;;;;18.06;43.07;94189.81;828175;71;29707;-75
2021/10/13 09:31:20;;;;;;;13.93;12.50;;;;;;;16.85;45.10;94200.01;828037;71;32562;-75
2021/10/13 09:46:12;;;;;;;12.98;11.57;;;;;;;15.76;46.81;94199.85;827795;71;30352;-76
2021/10/13 10:01:22;;;;;;;14.25;12.33;;;;;;;14.82;49.43;94223.55;828091;71;29883;-75
2021/10/13 10:16:18;;;;;;;11.48;10.30;;;;;;;14.00;51.06;94211.87;827284;71;32758;-74
2021/10/13 10:31:33;;;;;;;12.07;10.35;;;;;;;13.54;52.43;94220.52;828084;71;31917;-74
2021/10/13 10:46:15;;;;;;;13.00;11.28;;;;;;;13.32;53.03;94211.72;827351;71;32783;-75
2021/10/13 11:01:15;;;;;;;14.65;10.93;;;;;;;13.18;53.75;94215.80;833873;71;30760;-77
2021/10/13 11:16:09;;;;;;;12.28;9.75;;;;;;;13.10;53.11;94207.36;833854;71;29386;-76
2021/10/13 11:31:11;;;;;;;10.85;9.15;;;;;;;13.00;52.28;94212.93;828039;71;30773;-75
2021/10/13 11:46:18;;;;;;;12.43;10.15;;;;;;;12.96;52.91;94223.85;827384;71;32834;-75
2021/10/13 12:01:15;;;;;;;12.15;10.48;;;;;;;12.70;53.01;94238.30;833889;71;30749;-77
2021/10/13 12:16:17;;;;;;;14.30;11.05;;;;;;;12.45;54.01;94226.60;833939;71;34111;-74
2021/10/13 12:31:20;;;;;;;12.30;10.53;;;;;;;12.49;54.28;94227.55;827517;71;32761;-76
2021/10/13 12:46:23;;;;;;;15.48;12.73;;;;;;;12.90;53.54;94224.54;833903;71;30279;-77
2021/10/13 13:01:08;;;;;;;16.02;12.58;;;;;;;13.30;52.77;94237.61;833785;71;29865;-75
2021/10/13 13:16:15;;;;;;;11.73;10.40;;;;;;;13.69;51.26;94231.89;827200;71;32845;-76
2021/10/13 13:31:14;;;;;;;10.90;9.10;;;;;;;13.61;50.73;94246.64;827400;71;32764;-75
2021/10/13 13:46:10;;;;;;;10.40;9.30;;;;;;;13.46;50.79;94245.79;828121;71;30585;-75
2021/10/13 14:01:19;;;;;;;11.05;9.70;;;;;;;13.31;50.45;94256.81;833964;71;33267;-75
2021/10/13 14:16:14;;;;;;;11.55;9.25;;;;;;;13.08;50.27;94275.38;827376;71;31731;-75
2021/10/13 14:31:08;;;;;;;11.20;9.85;;;;;;;12.72;51.99;94256.64;829389;71;29432;-76
2021/10/13 14:46:10;;;;;;;13.65;11.22;;;;;;;12.57;53.71;94282.86;833822;71;28814;-74
2021/10/13 15:16:10;;;;;;;15.23;11.83;;;;;;;12.14;56.13;94308.42;833758;71;28718;-75
2021/10/13 15:31:09;;;;;;;15.35;12.20;;;;;;;11.93;57.53;94314.73;833648;71;28801;-77
2021/10/13 15:46:08;;;;;;;15.60;12.30;;;;;;;11.75;58.28;94336.69;827890;71;28713;-76
2021/10/13 16:01:14;;;;;;;19.45;14.35;;;;;;;11.56;58.79;94358.66;833497;71;31810;-76
2021/10/13 16:16:10;;;;;;;19.75;14.85;;;;;;;11.40;58.77;94374.52;827992;71;29928;-77
2021/10/13 16:31:20;;;;;;;18.55;13.83;;;;;;;11.31;58.54;94395.43;827313;71;31722;-80
2021/10/13 16:46:16;;;;;;;19.05;14.30;;;;;;;11.23;57.73;94411.36;826964;71;31808;-81
2021/10/13 17:01:08;;;;;;;20.00;15.10;;;;;;;11.97;69.43;94420.09;828199;71;28455;-77
2021/10/13 17:16:10;;;;;;;21.35;15.78;;;;;;;11.92;59.95;94432.83;827882;71;28547;-77
2021/10/13 17:31:14;;;;;;;19.17;14.83;;;;;;;11.68;59.54;94451.96;833902;71;31520;-77
2021/10/13 17:46:09;;;;;;;22.02;15.58;;;;;;;11.44;60.38;94471.38;827886;71;29506;-78
2021/10/13 18:01:14;;;;;;;27.10;19.82;;;;;;;11.27;62.02;94480.37;833627;71;31758;-78
2021/10/13 18:16:09;;;;;;;31.15;20.88;;;;;;;11.12;63.38;94489.31;828008;71;29268;-76
2021/10/13 18:31:14;;;;;;;23.95;18.27;;;;;;;11.01;64.40;94490.81;827386;71;32033;-81
2021/10/13 18:46:08;;;;;;;22.13;16.97;;;;;;;10.87;64.57;94499.72;814020;71;28522;-77
2021/10/13 19:01:11;;;;;;;24.43;18.17;;;;;;;10.74;65.50;94506.50;830106;71;28519;-79
2021/10/13 19:16:09;;;;;;;27.20;17.95;;;;;;;10.60;65.51;94532.19;828424;71;29571;-77
2021/10/13 19:31:14;;;;;;;19.60;15.55;;;;;;;10.52;65.19;94542.52;833793;71;31693;-77
2021/10/13 19:46:15;;;;;;;19.10;15.98;;;;;;;10.45;65.70;94549.99;829773;71;31379;-79
2021/10/13 20:01:08;;;;;;;19.75;14.90;;;;;;;10.38;65.66;94562.94;834033;71;29002;-77
2021/10/13 20:16:09;;;;;;;21.25;15.75;;;;;;;10.37;65.76;94581.57;834007;71;29549;-77
2021/10/13 20:31:15;;;;;;;16.02;13.53;;;;;;;10.31;65.89;94583.48;827365;71;31889;-77
2021/10/13 20:46:08;;;;;;;18.70;13.95;;;;;;;10.30;66.18;94589.80;828110;71;28789;-79
2021/10/13 21:16:14;;;;;;;19.57;14.90;;;;;;;10.24;66.69;94594.83;828312;71;32778;-79
2021/10/13 21:31:16;;;;;;;22.10;15.65;;;;;;;10.15;67.07;94598.59;824319;71;32683;-77
2021/10/13 21:46:10;;;;;;;17.57;13.75;;;;;;;10.05;67.33;94592.17;829765;70;30399;-78
2021/10/13 22:01:17;;;;;;;17.17;14.18;;;;;;;9.94;67.71;94583.66;835628;70;32760;-77
2021/10/13 22:16:29;;;;;;;19.20;14.70;;;;;;;9.82;68.27;94609.48;824106;71;32884;-75
2021/10/13 22:31:15;;;;;;;17.62;13.98;;;;;;;9.74;68.65;94605.64;833856;71;32695;-77
2021/10/13 22:46:14;;;;;;;16.55;13.43;;;;;;;9.69;68.79;94602.29;827411;71;32836;-76
2021/10/13 23:01:14;;;;;;;15.32;12.45;;;;;;;9.66;68.91;94608.88;827391;71;32737;-78
2021/10/13 23:16:08;;;;;;;14.85;12.35;;;;;;;9.63;68.80;94608.91;833880;71;29754;-79
2021/10/13 23:31:15;;;;;;;14.83;12.28;;;;;;;9.60;68.97;94618.62;833746;71;33288;-77
2021/10/13 23:46:08;;;;;;;13.78;12.28;;;;;;;9.62;69.33;94625.67;828145;71;30213;-78
